Lamont, Kansas
Current Conditions -  °F | °C
As of 7:05 PM on Wednesday 17 Dec 2014 (Local Time) from KEMP Reporting Station
Light Snow Light Snow  
Wind Chill: 20°   Ceiling: 2800
Heat Index: 28°   Visibility: 1.2mi
Dew Point: 27°   Wind: 8mph
Humidity: 96%   Direction: 90°E
Pressure: 30.22"   Gusts: NA
Location:  38.11°N, 96.03°W
Report Text: KEMP 180105Z AUTO 09007KT 1 1/4SM -SN BR SCT013 BKN028 OVC060 M02/M03 A3022 RMK AO2 P0000 T10221028
Loading
Personal Weather Stations






























Interactive Weather Map New forecast layout! Learn more

10-Day Weather Forecast

Advertisements
Track Severe Weather on mobile